createdAt,value
2018-05-07T00:01:17.011Z,100348.26
2018-05-07T00:02:52.189Z,100343.93
2018-05-07T00:04:28.086Z,100347.50
2018-05-07T00:06:07.631Z,100349.91
2018-05-07T00:07:42.752Z,100349.31
2018-05-07T00:09:17.826Z,100344.69
2018-05-07T00:10:52.964Z,100344.07
2018-05-07T00:12:28.815Z,100351.47
2018-05-07T00:14:04.018Z,100349.31
2018-05-07T00:15:39.095Z,100351.12
2018-05-07T00:17:14.202Z,100351.25
2018-05-07T00:18:49.353Z,100349.57
2018-05-07T00:20:25.228Z,100346.30
2018-05-07T00:22:00.341Z,100346.68
2018-05-07T00:23:36.578Z,100347.96
2018-05-07T00:25:11.701Z,100354.97
2018-05-07T00:26:46.820Z,100349.83
2018-05-07T00:28:21.955Z,100350.01
2018-05-07T00:29:57.092Z,100348.77
2018-05-07T00:31:33.967Z,100349.28
2018-05-07T00:33:09.275Z,100350.86
2018-05-07T00:34:44.355Z,100355.13
2018-05-07T00:36:19.456Z,100348.03
2018-05-07T00:37:55.337Z,100350.62
2018-05-07T00:39:30.439Z,100348.98
2018-05-07T00:41:05.554Z,100352.20
2018-05-07T00:42:40.643Z,100345.23
2018-05-07T00:44:16.536Z,100340.71
2018-05-07T00:45:51.635Z,100344.00
2018-05-07T00:47:30.834Z,100345.77
2018-05-07T00:49:05.941Z,100345.62
2018-05-07T00:50:41.052Z,100343.52
2018-05-07T00:52:16.147Z,100347.96
2018-05-07T00:53:51.783Z,100339.27
2018-05-07T00:55:26.928Z,100341.38
2018-05-07T00:57:02.810Z,100341.86
2018-05-07T00:58:43.770Z,100341.00
2018-05-07T01:00:18.903Z,100339.11
2018-05-07T01:01:54.042Z,100335.73
2018-05-07T01:03:29.091Z,100336.88
2018-05-07T01:05:04.182Z,100334.71
2018-05-07T01:06:40.116Z,100335.33
2018-05-07T01:08:15.187Z,100335.56
2018-05-07T01:09:50.287Z,100346.67
2018-05-07T01:11:25.355Z,100337.11
2018-05-07T01:13:00.508Z,100340.73
2018-05-07T01:14:35.591Z,100341.19
2018-05-07T01:16:10.665Z,100343.59
2018-05-07T01:17:45.771Z,100343.64
2018-05-07T01:19:21.109Z,100344.47
2018-05-07T01:20:57.135Z,100342.30
2018-05-07T01:22:32.232Z,100343.30
2018-05-07T01:24:07.355Z,100344.52
2018-05-07T01:25:43.244Z,100343.59
2018-05-07T01:27:19.113Z,100341.23
2018-05-07T01:28:54.958Z,100339.27
2018-05-07T01:30:30.024Z,100344.11
2018-05-07T01:32:05.913Z,100341.63
2018-05-07T01:33:40.992Z,100339.65
2018-05-07T01:35:16.082Z,100344.37
2018-05-07T01:36:51.167Z,100339.67
2018-05-07T01:38:27.002Z,100343.32
2018-05-07T01:40:02.090Z,100346.48
2018-05-07T01:41:37.153Z,100353.05
2018-05-07T01:43:12.332Z,100348.44
2018-05-07T01:44:47.397Z,100350.69
2018-05-07T01:46:29.258Z,100352.11
2018-05-07T01:48:04.354Z,100353.22
2018-05-07T01:49:39.514Z,100355.52
2018-05-07T01:51:14.623Z,100356.46
2018-05-07T01:52:50.648Z,100355.06
2018-05-07T01:54:26.498Z,100362.14
2018-05-07T01:56:01.592Z,100361.80
2018-05-07T01:57:38.321Z,100359.47
2018-05-07T01:59:14.155Z,100356.46
2018-05-07T02:00:49.304Z,100358.25
2018-05-07T02:02:24.380Z,100362.97
2018-05-07T02:03:59.466Z,100360.92
2018-05-07T02:05:34.511Z,100359.86
2018-05-07T02:07:09.571Z,100355.39
2018-05-07T02:08:44.649Z,100355.61
2018-05-07T02:10:19.799Z,100355.08
2018-05-07T02:11:54.891Z,100352.69
2018-05-07T02:13:30.023Z,100359.56
2018-05-07T02:15:05.120Z,100361.84
2018-05-07T02:16:40.186Z,100355.30
2018-05-07T02:18:15.617Z,100355.50
2018-05-07T02:19:51.041Z,100349.74
2018-05-07T02:21:26.272Z,100352.70
2018-05-07T02:23:02.094Z,100354.03
2018-05-07T02:24:37.208Z,100348.52
2018-05-07T02:26:12.291Z,100342.17
2018-05-07T02:27:48.144Z,100326.22
2018-05-07T02:29:23.218Z,100347.72
2018-05-07T02:30:58.335Z,100340.57
2018-05-07T02:32:33.457Z,100342.28
2018-05-07T02:34:08.634Z,100341.77
2018-05-07T02:35:43.797Z,100340.34
2018-05-07T02:37:18.896Z,100344.49
2018-05-07T02:38:54.014Z,100345.14
2018-05-07T02:40:29.085Z,100342.61
2018-05-07T02:42:04.209Z,100342.29
2018-05-07T02:43:39.314Z,100345.41
2018-05-07T02:45:14.412Z,100346.23
2018-05-07T02:46:49.564Z,100341.38
2018-05-07T02:48:24.696Z,100339.75
2018-05-07T02:49:59.802Z,100342.13
2018-05-07T02:51:34.940Z,100338.29
2018-05-07T02:53:10.000Z,100337.22
2018-05-07T02:54:45.177Z,100334.61
2018-05-07T02:56:20.250Z,100332.02
2018-05-07T02:57:55.342Z,100327.30
2018-05-07T02:59:30.456Z,100333.94
2018-05-07T03:01:06.311Z,100333.80
2018-05-07T03:02:41.383Z,100333.08
2018-05-07T03:04:16.488Z,100308.09
2018-05-07T03:05:51.582Z,100330.17
2018-05-07T03:07:26.698Z,100332.42
2018-05-07T03:09:01.801Z,100330.79
2018-05-07T03:10:36.882Z,100326.34
2018-05-07T03:12:12.078Z,100331.99
2018-05-07T03:13:47.091Z,100325.14
2018-05-07T03:15:22.211Z,100324.36
2018-05-07T03:16:57.329Z,100322.47
2018-05-07T03:18:32.391Z,100324.58
2018-05-07T03:20:07.784Z,100324.17
2018-05-07T03:21:43.516Z,100327.30
2018-05-07T03:23:18.623Z,100322.81
2018-05-07T03:24:53.676Z,100325.42
2018-05-07T03:26:28.808Z,100317.13
2018-05-07T03:28:05.011Z,100321.91
2018-05-07T03:29:40.100Z,100322.14
2018-05-07T03:31:15.217Z,100318.20
2018-05-07T03:32:50.380Z,100321.80
2018-05-07T03:34:25.527Z,100315.03
2018-05-07T03:36:01.443Z,100319.00
2018-05-07T03:37:37.049Z,100318.07
2018-05-07T03:39:12.123Z,100317.64
2018-05-07T03:40:47.896Z,100319.16
2018-05-07T03:42:23.049Z,100318.41
2018-05-07T03:43:58.168Z,100324.78
2018-05-07T03:45:34.045Z,100319.88
2018-05-07T03:47:09.096Z,100323.40
2018-05-07T03:48:44.217Z,100327.11
2018-05-07T03:50:19.376Z,100330.09
2018-05-07T03:51:54.481Z,100329.66
2018-05-07T03:53:29.604Z,100329.51
2018-05-07T03:55:04.716Z,100333.96
2018-05-07T03:56:48.455Z,100336.79
2018-05-07T03:58:23.622Z,100334.41
2018-05-07T03:59:59.478Z,100326.95
2018-05-07T04:01:34.634Z,100336.66
2018-05-07T04:03:09.753Z,100330.16
2018-05-07T04:04:47.319Z,100331.80
2018-05-07T04:06:22.462Z,100332.02
2018-05-07T04:07:57.588Z,100333.75
2018-05-07T04:09:33.615Z,100330.64
2018-05-07T04:11:09.807Z,100330.00
2018-05-07T04:12:44.934Z,100332.46
2018-05-07T04:14:20.925Z,100330.69
2018-05-07T04:15:56.226Z,100329.42
2018-05-07T04:17:51.663Z,100321.20
2018-05-07T04:19:44.466Z,100322.68
2018-05-07T04:21:20.346Z,100315.45
2018-05-07T04:23:13.128Z,100318.02
2018-05-07T04:24:48.189Z,100311.80
2018-05-07T04:26:23.291Z,100312.36
2018-05-07T04:27:58.406Z,100305.11
2018-05-07T04:29:33.538Z,100306.97
2018-05-07T04:31:09.460Z,100306.97
2018-05-07T04:32:45.301Z,100302.75
2018-05-07T04:34:27.726Z,100299.61
2018-05-07T04:36:03.531Z,100302.34
2018-05-07T04:37:38.622Z,100300.00
2018-05-07T04:39:13.774Z,100300.67
2018-05-07T04:40:48.866Z,100304.97
2018-05-07T04:42:24.035Z,100306.62
2018-05-07T04:43:59.712Z,100310.83
2018-05-07T04:45:36.003Z,100306.80
2018-05-07T04:47:32.812Z,100314.77
2018-05-07T04:49:08.866Z,100311.37
2018-05-07T04:50:44.385Z,100313.17
2018-05-07T04:52:19.525Z,100315.32
2018-05-07T04:53:54.684Z,100311.09
2018-05-07T04:55:29.852Z,100316.53
2018-05-07T04:57:05.744Z,100312.56
2018-05-07T04:58:43.236Z,100314.47
2018-05-07T05:00:19.599Z,100314.94
2018-05-07T05:01:54.706Z,100313.76
2018-05-07T05:03:29.884Z,100314.87
2018-05-07T05:05:05.026Z,100317.95
2018-05-07T05:06:40.119Z,100318.68
2018-05-07T05:08:15.922Z,100320.98
2018-05-07T05:09:52.502Z,100320.35
2018-05-07T05:11:27.709Z,100320.81
2018-05-07T05:13:04.504Z,100319.27
2018-05-07T05:15:05.608Z,100314.55
2018-05-07T05:16:40.751Z,100312.94
2018-05-07T05:18:16.920Z,100314.75
2018-05-07T05:19:55.196Z,100309.50
2018-05-07T05:21:30.991Z,100319.56
2018-05-07T05:23:06.246Z,100313.53
2018-05-07T05:24:42.027Z,100314.71
2018-05-07T05:26:17.278Z,100307.39
2018-05-07T05:27:53.165Z,100311.79
2018-05-07T05:29:30.656Z,100309.00
2018-05-07T05:31:05.781Z,100290.80
2018-05-07T05:32:40.882Z,100312.16
2018-05-07T05:34:15.984Z,100310.80
2018-05-07T05:35:51.827Z,100314.77
2018-05-07T05:37:28.246Z,100311.97
2018-05-07T05:39:03.364Z,100310.98
2018-05-07T05:40:39.263Z,100313.28
2018-05-07T05:42:14.379Z,100317.05
2018-05-07T05:43:50.365Z,100310.06
2018-05-07T05:45:38.986Z,100305.30
2018-05-07T05:47:14.078Z,100310.64
2018-05-07T05:48:49.194Z,100311.81
2018-05-07T05:50:24.272Z,100316.33
2018-05-07T05:52:00.155Z,100311.13
2018-05-07T05:53:35.245Z,100305.97
2018-05-07T05:55:10.408Z,100311.09
2018-05-07T05:56:45.534Z,100306.98
2018-05-07T05:58:20.673Z,100305.31
2018-05-07T05:59:55.855Z,100301.98
2018-05-07T06:01:31.035Z,100300.10
2018-05-07T06:03:06.133Z,100301.38
2018-05-07T06:04:41.286Z,100288.95
2018-05-07T06:06:16.401Z,100285.61
2018-05-07T06:07:52.274Z,100285.19
2018-05-07T06:09:28.132Z,100282.55
2018-05-07T06:11:03.344Z,100282.34
2018-05-07T06:12:38.900Z,100290.05
2018-05-07T06:14:15.791Z,100282.19
2018-05-07T06:15:50.906Z,100283.88
2018-05-07T06:17:26.776Z,100281.38
2018-05-07T06:19:02.640Z,100278.70
2018-05-07T06:20:43.409Z,100280.74
2018-05-07T06:22:18.579Z,100272.87
2018-05-07T06:23:53.670Z,100279.11
2018-05-07T06:25:28.770Z,100280.91
2018-05-07T06:27:04.614Z,100276.73
2018-05-07T06:28:40.105Z,100275.81
2018-05-07T06:30:15.176Z,100279.01
2018-05-07T06:31:51.031Z,100273.20
2018-05-07T06:33:26.153Z,100274.87
2018-05-07T06:35:01.255Z,100263.61
2018-05-07T06:36:36.357Z,100264.81
2018-05-07T06:38:11.493Z,100266.66
2018-05-07T06:39:46.624Z,100266.39
2018-05-07T06:41:21.777Z,100264.91
2018-05-07T06:42:56.966Z,100265.84
2018-05-07T06:44:32.832Z,100266.33
2018-05-07T06:46:07.943Z,100271.28
2018-05-07T06:47:43.049Z,100268.47
2018-05-07T06:49:18.127Z,100263.19
2018-05-07T06:50:53.246Z,100266.52
2018-05-07T06:52:28.328Z,100268.64
2018-05-07T06:54:03.438Z,100264.97
2018-05-07T06:55:38.581Z,100271.48
2018-05-07T06:57:13.639Z,100265.38
2018-05-07T06:58:48.784Z,100265.39
2018-05-07T07:00:24.618Z,100258.94
2018-05-07T07:01:59.759Z,100261.52
2018-05-07T07:03:34.854Z,100251.73
2018-05-07T07:05:09.952Z,100257.27
2018-05-07T07:06:47.642Z,100243.91
2018-05-07T07:08:22.784Z,100247.60
2018-05-07T07:09:57.858Z,100250.89
2018-05-07T07:11:32.916Z,100244.20
2018-05-07T07:13:08.053Z,100246.11
2018-05-07T07:14:43.931Z,100240.30
2018-05-07T07:16:19.127Z,100240.59
2018-05-07T07:17:54.343Z,100241.54
2018-05-07T07:19:29.497Z,100238.25
2018-05-07T07:21:04.695Z,100238.53
2018-05-07T07:22:39.784Z,100240.37
2018-05-07T07:24:14.889Z,100234.30
2018-05-07T07:25:50.031Z,100227.47
2018-05-07T07:27:25.897Z,100235.54
2018-05-07T07:29:01.057Z,100229.00
2018-05-07T07:30:36.147Z,100230.50
2018-05-07T07:32:14.629Z,100224.60
2018-05-07T07:33:50.542Z,100223.55
2018-05-07T07:35:25.621Z,100221.19
2018-05-07T07:37:01.306Z,100220.16
2018-05-07T07:38:37.301Z,100220.95
2018-05-07T07:40:12.411Z,100215.39
2018-05-07T07:41:48.239Z,100217.42
2018-05-07T07:43:23.390Z,100218.17
2018-05-07T07:44:58.533Z,100215.83
2018-05-07T07:46:33.645Z,100221.63
2018-05-07T07:48:08.798Z,100223.22
2018-05-07T07:49:43.927Z,100223.26
2018-05-07T07:51:19.033Z,100220.91
2018-05-07T07:52:54.104Z,100224.55
2018-05-07T07:54:29.224Z,100218.20
2018-05-07T07:56:04.291Z,100222.81
2018-05-07T07:57:46.415Z,100218.97
2018-05-07T07:59:21.562Z,100222.09
2018-05-07T08:00:56.691Z,100213.68
2018-05-07T08:02:31.804Z,100214.70
2018-05-07T08:04:06.939Z,100213.13
2018-05-07T08:05:41.995Z,100219.84
2018-05-07T08:07:17.860Z,100220.27
2018-05-07T08:08:52.961Z,100221.42
2018-05-07T08:10:28.082Z,100219.17
2018-05-07T08:12:03.226Z,100215.44
2018-05-07T08:13:38.296Z,100219.14
2018-05-07T08:15:13.375Z,100217.22
2018-05-07T08:16:48.503Z,100206.33
2018-05-07T08:18:23.599Z,100211.97
2018-05-07T08:19:58.701Z,100214.14
2018-05-07T08:21:33.842Z,100206.61
2018-05-07T08:23:10.467Z,100209.03
2018-05-07T08:24:45.559Z,100210.61
2018-05-07T08:26:21.534Z,100214.16
2018-05-07T08:27:57.691Z,100209.14
2018-05-07T08:29:32.758Z,100204.73
2018-05-07T08:31:07.920Z,100208.88
2018-05-07T08:32:43.065Z,100212.63
2018-05-07T08:34:18.191Z,100201.94
2018-05-07T08:35:53.307Z,100209.16
2018-05-07T08:37:29.156Z,100207.55
2018-05-07T08:39:04.285Z,100213.16
2018-05-07T08:40:39.515Z,100208.59
2018-05-07T08:42:14.711Z,100210.89
2018-05-07T08:43:50.522Z,100211.74
2018-05-07T08:45:25.630Z,100212.72
2018-05-07T08:47:01.480Z,100204.73
2018-05-07T08:48:36.596Z,100197.39
2018-05-07T08:50:12.418Z,100203.06
2018-05-07T08:51:47.707Z,100207.95
2018-05-07T08:53:23.384Z,100208.12
2018-05-07T08:54:58.475Z,100199.70
2018-05-07T08:56:33.635Z,100200.77
2018-05-07T08:58:08.748Z,100200.64
2018-05-07T08:59:43.948Z,100200.45
2018-05-07T09:01:19.038Z,100200.14
2018-05-07T09:02:54.167Z,100197.78
2018-05-07T09:04:29.328Z,100197.61
2018-05-07T09:06:05.292Z,100195.12
2018-05-07T09:07:40.383Z,100199.11
2018-05-07T09:09:15.525Z,100195.33
2018-05-07T09:10:50.659Z,100193.77
2018-05-07T09:12:25.762Z,100194.67
2018-05-07T09:14:00.896Z,100201.75
2018-05-07T09:15:36.046Z,100193.98
2018-05-07T09:17:11.171Z,100186.86
2018-05-07T09:18:46.254Z,100190.23
2018-05-07T09:20:21.546Z,100189.94
2018-05-07T09:22:02.511Z,100180.44
2018-05-07T09:23:37.630Z,100182.87
2018-05-07T09:25:12.765Z,100190.20
2018-05-07T09:26:47.864Z,100182.17
2018-05-07T09:28:22.967Z,100179.21
2018-05-07T09:29:58.050Z,100181.69
2018-05-07T09:31:36.682Z,100177.53
2018-05-07T09:33:11.706Z,100185.09
2018-05-07T09:34:46.779Z,100181.68
2018-05-07T09:36:21.946Z,100169.06
2018-05-07T09:38:08.893Z,100176.77
2018-05-07T09:39:44.004Z,100178.70
2018-05-07T09:41:19.132Z,100167.61
2018-05-07T09:42:54.329Z,100162.38
2018-05-07T09:44:29.416Z,100162.95
2018-05-07T09:46:04.546Z,100160.43
2018-05-07T09:47:39.638Z,100167.17
2018-05-07T09:49:15.036Z,100159.14
2018-05-07T09:50:50.142Z,100160.89
2018-05-07T09:52:25.250Z,100163.56
2018-05-07T09:54:00.472Z,100163.02
2018-05-07T09:55:35.583Z,100154.89
2018-05-07T09:57:10.679Z,100149.92
2018-05-07T09:58:57.446Z,100150.81
2018-05-07T10:00:37.480Z,100156.22
2018-05-07T10:02:13.123Z,100160.67
2018-05-07T10:04:08.012Z,100159.28
2018-05-07T10:05:43.136Z,100151.38
2018-05-07T10:07:18.312Z,100148.46
2018-05-07T10:08:53.457Z,100144.75
2018-05-07T10:10:28.618Z,100154.71
2018-05-07T10:12:03.715Z,100155.95
2018-05-07T10:13:40.351Z,100147.33
2018-05-07T10:15:16.321Z,100148.21
2018-05-07T10:16:52.254Z,100134.89
2018-05-07T10:18:28.133Z,100139.70
2018-05-07T10:20:04.039Z,100140.42
2018-05-07T10:21:39.899Z,100130.98
2018-05-07T10:23:16.031Z,100129.75
2018-05-07T10:24:51.154Z,100131.40
2018-05-07T10:26:27.152Z,100126.78
2018-05-07T10:28:02.339Z,100134.61
2018-05-07T10:29:38.237Z,100137.05
2018-05-07T10:31:13.331Z,100131.20
2018-05-07T10:32:48.496Z,100131.30
2018-05-07T10:34:23.725Z,100125.81
2018-05-07T10:35:58.897Z,100127.98
2018-05-07T10:37:34.876Z,100120.00
2018-05-07T10:39:10.212Z,100115.30
2018-05-07T10:40:45.332Z,100118.55
2018-05-07T10:42:21.178Z,100107.99
2018-05-07T10:43:56.326Z,100107.92
2018-05-07T10:45:32.278Z,100108.58
2018-05-07T10:47:07.409Z,100107.42
2018-05-07T10:48:42.550Z,100102.01
2018-05-07T10:50:17.762Z,100103.44
2018-05-07T10:51:52.859Z,100101.80
2018-05-07T10:53:28.040Z,100103.58
2018-05-07T10:55:03.233Z,100093.29
2018-05-07T10:56:38.384Z,100092.61
2018-05-07T10:58:13.538Z,100085.44
2018-05-07T10:59:48.870Z,100097.88
2018-05-07T11:01:23.960Z,100097.13
2018-05-07T11:03:00.766Z,100093.23
2018-05-07T11:04:35.878Z,100088.17
2018-05-07T11:06:11.099Z,100095.43
2018-05-07T11:07:46.240Z,100084.50
2018-05-07T11:09:21.371Z,100080.98
2018-05-07T11:10:57.279Z,100086.09
2018-05-07T11:12:32.412Z,100083.59
2018-05-07T11:14:11.411Z,100075.91
2018-05-07T11:15:46.533Z,100074.39
2018-05-07T11:17:21.664Z,100073.92
2018-05-07T11:18:57.593Z,100072.32
2018-05-07T11:20:32.673Z,100068.42
2018-05-07T11:22:08.589Z,100071.58
2018-05-07T11:23:48.375Z,100079.56
2018-05-07T11:25:24.003Z,100068.03
2018-05-07T11:26:59.111Z,100064.08
2018-05-07T11:28:34.220Z,100064.77
2018-05-07T11:30:09.383Z,100061.58
2018-05-07T11:31:45.571Z,100059.23
2018-05-07T11:33:21.497Z,100060.47
2018-05-07T11:35:03.168Z,100054.39
2018-05-07T11:36:38.319Z,100049.23
2018-05-07T11:38:14.234Z,100049.34
2018-05-07T11:39:49.423Z,100044.88
2018-05-07T11:41:24.588Z,100043.44
2018-05-07T11:43:00.677Z,100051.48
2018-05-07T11:44:35.873Z,100047.36
2018-05-07T12:04:28.470Z,100032.52
2018-05-07T12:06:03.591Z,100030.66
2018-05-07T12:07:52.265Z,100026.91
2018-05-07T13:49:31.905Z,99914.09
2018-05-07T13:51:09.050Z,99908.33
2018-05-07T13:52:47.917Z,99900.06
2018-05-07T13:54:25.207Z,99910.66
2018-05-07T13:56:15.418Z,99911.55
2018-05-07T13:57:51.752Z,99899.93
2018-05-07T13:59:30.737Z,99909.19
2018-05-07T14:01:07.467Z,99902.95
2018-05-07T14:02:55.046Z,99905.39
2018-05-07T14:04:36.003Z,99904.23
2018-05-07T14:06:12.200Z,99901.22
2018-05-07T14:07:58.790Z,99902.06
2018-05-07T14:09:57.984Z,99903.68
2018-05-07T14:11:34.884Z,99905.72
2018-05-07T14:13:11.994Z,99890.98
2018-05-07T14:14:48.888Z,99888.41
2018-05-07T14:16:29.144Z,99883.27
2018-05-07T14:18:10.893Z,99888.63
2018-05-07T14:19:48.753Z,99885.59
2018-05-07T14:21:24.426Z,99885.83
2018-05-07T14:22:59.945Z,99881.58
2018-05-07T14:24:36.552Z,99881.81
2018-05-07T14:26:11.675Z,99896.27
2018-05-07T14:27:47.072Z,99872.48
2018-05-07T14:29:22.275Z,99882.88
2018-05-07T14:30:57.345Z,99877.78
2018-05-07T14:32:33.169Z,99880.43
2018-05-07T14:34:09.058Z,99882.38
2018-05-07T14:35:44.460Z,99875.05
2018-05-07T14:37:21.759Z,99868.50
2018-05-07T14:38:57.821Z,99863.84
2018-05-07T14:40:35.129Z,99863.84
2018-05-07T14:42:10.288Z,99864.06
2018-05-07T14:43:45.451Z,99861.20
2018-05-07T14:45:21.319Z,99862.08
2018-05-07T14:46:56.911Z,99861.58
2018-05-07T14:48:32.916Z,99852.97
2018-05-07T14:50:08.089Z,99845.40
2018-05-07T14:51:44.131Z,99861.66
2018-05-07T14:53:19.284Z,99852.83
2018-05-07T14:54:54.350Z,99864.30
2018-05-07T14:56:31.193Z,99850.41
2018-05-07T14:58:07.096Z,99847.43
2018-05-07T14:59:42.264Z,99851.02
2018-05-07T15:01:18.278Z,99847.00
2018-05-07T15:02:54.749Z,99842.79
2018-05-07T15:04:32.405Z,99837.62
2018-05-07T15:06:07.636Z,99842.00
2018-05-07T15:07:43.676Z,99832.28
2018-05-07T15:09:21.450Z,99837.55
2018-05-07T15:10:57.194Z,99846.47
2018-05-07T15:12:33.287Z,99839.77
2018-05-07T15:14:23.633Z,99838.97
2018-05-07T15:16:00.758Z,99835.98
2018-05-07T15:17:36.948Z,99847.81
2018-05-07T15:19:13.218Z,99832.43
2018-05-07T15:20:58.526Z,99844.09
2018-05-07T15:22:33.844Z,99836.67
2018-05-07T15:24:09.474Z,99828.71
2018-05-07T15:25:44.804Z,99828.88
2018-05-07T15:27:20.236Z,99833.84
2018-05-07T15:28:57.364Z,99837.02
2018-05-07T15:30:33.290Z,99834.50
2018-05-07T15:32:11.513Z,99827.97
2018-05-07T15:33:50.596Z,99830.29
2018-05-07T15:35:26.720Z,99835.80
2018-05-07T15:37:05.286Z,99837.80
2018-05-07T15:38:40.649Z,99834.20
2018-05-07T15:40:16.301Z,99833.28
2018-05-07T15:41:51.389Z,99838.09
2018-05-07T15:43:27.109Z,99823.87
2018-05-07T15:45:03.283Z,99824.70
2018-05-07T15:46:45.560Z,99833.02
2018-05-07T15:48:20.777Z,99827.92
2018-05-07T15:49:56.278Z,99834.46
2018-05-07T15:51:32.799Z,99840.47
2018-05-07T15:53:07.991Z,99837.30
2018-05-07T15:54:44.530Z,99831.37
2018-05-07T15:56:20.631Z,99833.47
2018-05-07T15:57:55.778Z,99836.80
2018-05-07T15:59:31.547Z,99825.55
2018-05-07T16:01:07.211Z,99824.28
2018-05-07T16:02:42.514Z,99821.95
2018-05-07T16:04:17.777Z,99812.67
2018-05-07T16:05:52.964Z,99810.59
2018-05-07T16:07:29.978Z,99805.08
2018-05-07T16:09:07.345Z,99812.98
2018-05-07T16:10:45.840Z,99808.16
2018-05-07T16:12:21.610Z,99780.28
2018-05-07T16:13:57.655Z,99803.30
2018-05-07T16:15:39.320Z,99803.86
2018-05-07T16:17:20.178Z,99806.57
2018-05-07T16:18:55.509Z,99807.49
2018-05-07T16:20:30.629Z,99812.63
2018-05-07T16:22:05.812Z,99806.64
2018-05-07T16:23:40.871Z,99802.10
2018-05-07T16:25:15.991Z,99808.36
2018-05-07T16:26:51.141Z,99800.36
2018-05-07T16:28:27.533Z,99797.09
2018-05-07T16:30:03.004Z,99791.75
2018-05-07T16:31:38.116Z,99789.50
2018-05-07T16:33:13.238Z,99779.50
2018-05-07T16:34:48.351Z,99796.45
2018-05-07T16:36:24.215Z,99785.28
2018-05-07T16:37:59.343Z,99784.28
2018-05-07T16:39:35.253Z,99789.35
2018-05-07T16:41:10.389Z,99791.08
2018-05-07T16:42:46.277Z,99795.59
2018-05-07T16:44:21.379Z,99787.94
2018-05-07T16:45:56.519Z,99787.24
2018-05-07T16:47:31.651Z,99790.57
2018-05-07T16:49:06.809Z,99797.02
2018-05-07T16:50:42.691Z,99787.61
2018-05-07T16:52:17.819Z,99791.16
2018-05-07T16:53:52.952Z,99788.32
2018-05-07T16:55:28.704Z,99778.23
2018-05-07T16:57:04.119Z,99770.33
2018-05-07T16:58:39.361Z,99774.50
2018-05-07T17:00:14.621Z,99779.21
2018-05-07T17:01:51.344Z,99779.97
2018-05-07T17:03:32.036Z,99777.38
2018-05-07T17:05:12.372Z,99777.13
2018-05-07T17:06:47.427Z,99785.00
2018-05-07T17:08:23.416Z,99777.23
2018-05-07T17:09:58.491Z,99774.02
2018-05-07T17:11:33.556Z,99769.96
2018-05-07T17:13:09.403Z,99770.39
2018-05-07T17:14:44.534Z,99774.44
2018-05-07T17:16:20.611Z,99775.00
2018-05-07T17:17:56.420Z,99765.80
2018-05-07T17:19:31.596Z,99765.48
2018-05-07T17:21:07.825Z,99772.50
2018-05-07T17:22:42.929Z,99775.60
2018-05-07T17:24:18.124Z,99774.75
2018-05-07T17:25:53.279Z,99768.85
2018-05-07T17:27:28.379Z,99774.52
2018-05-07T17:29:03.586Z,99777.19
2018-05-07T17:30:38.827Z,99769.84
2018-05-07T17:32:15.899Z,99771.08
2018-05-07T17:33:53.207Z,99773.02
2018-05-07T17:35:28.273Z,99776.94
2018-05-07T17:37:03.460Z,99774.32
2018-05-07T17:38:39.941Z,99771.45
2018-05-07T17:40:15.848Z,99772.79
2018-05-07T17:41:51.037Z,99772.17
2018-05-07T17:43:43.516Z,99767.53
2018-05-07T17:45:40.891Z,99766.01
2018-05-07T17:47:34.677Z,99768.77
2018-05-07T17:49:11.437Z,99772.02
2018-05-07T17:50:50.957Z,99767.27
2018-05-07T17:52:29.860Z,99770.65
2018-05-07T17:54:05.528Z,99767.14
2018-05-07T17:55:41.317Z,99765.36
2018-05-07T17:57:17.347Z,99769.15
2018-05-07T17:58:53.214Z,99765.43
2018-05-07T18:00:28.846Z,99767.22
2018-05-07T18:02:03.939Z,99768.09
2018-05-07T18:03:39.790Z,99763.71
2018-05-07T18:05:15.009Z,99765.73
2018-05-07T18:06:53.099Z,99764.95
2018-05-07T18:08:28.216Z,99764.75
2018-05-07T18:10:04.131Z,99763.06
2018-05-07T18:11:39.872Z,99764.16
2018-05-07T18:13:20.302Z,99755.88
2018-05-07T18:15:00.619Z,99758.77
2018-05-07T18:29:00.009Z,99756.78
2018-05-07T18:30:38.763Z,99762.96
2018-05-07T18:32:15.715Z,99764.05
2018-05-07T18:33:53.923Z,99766.84
2018-05-07T18:35:31.825Z,99768.76
2018-05-07T18:37:12.529Z,99767.67
2018-05-07T18:38:58.162Z,99761.20
2018-05-07T18:40:36.258Z,99764.63
2018-05-07T18:42:13.958Z,99765.41
2018-05-07T18:43:53.404Z,99768.75
2018-05-07T18:45:33.310Z,99770.10
2018-05-07T18:47:13.923Z,99768.92
2018-05-07T18:48:52.129Z,99767.69
2018-05-07T18:50:31.049Z,99769.73
2018-05-07T18:52:08.654Z,99771.85
2018-05-07T18:53:49.356Z,99773.00
2018-05-07T18:55:27.837Z,99772.13
2018-05-07T18:57:04.489Z,99770.13
2018-05-07T18:58:42.534Z,99772.16
2018-05-07T19:00:29.424Z,99775.95
2018-05-07T19:02:08.644Z,99779.02
2018-05-07T19:03:46.009Z,99772.54
2018-05-07T19:05:25.654Z,99779.09
2018-05-07T19:07:14.343Z,99776.29
2018-05-07T19:08:50.805Z,99775.82
2018-05-07T19:10:29.476Z,99769.89
2018-05-07T19:12:06.384Z,99772.55
2018-05-07T19:13:45.990Z,99775.35
2018-05-07T19:15:24.512Z,99779.87
2018-05-07T19:17:02.833Z,99781.90
2018-05-07T19:18:39.798Z,99781.33
2018-05-07T19:20:18.029Z,99785.66
2018-05-07T19:22:15.310Z,99786.41
2018-05-07T19:23:52.010Z,99791.70
2018-05-07T19:25:28.002Z,99792.66
2018-05-07T19:27:06.702Z,99792.33
2018-05-07T19:28:43.583Z,99795.87
2018-05-07T19:30:20.585Z,99801.17
2018-05-07T19:31:59.218Z,99794.59
2018-05-07T19:33:35.712Z,99794.38
2018-05-07T19:35:12.168Z,99799.58
2018-05-07T19:36:48.791Z,99795.81
2018-05-07T19:38:30.784Z,99788.94
2018-05-07T19:40:07.218Z,99795.48
2018-05-07T19:41:43.135Z,99791.58
2018-05-07T19:43:18.253Z,99794.80
2018-05-07T19:44:53.938Z,99792.73
2018-05-07T19:46:44.170Z,99796.49
2018-05-07T19:48:24.491Z,99795.93
2018-05-07T19:50:04.649Z,99792.27
2018-05-07T19:51:45.007Z,99794.74
2018-05-07T19:53:24.350Z,99790.05
2018-05-07T19:54:59.456Z,99794.03
2018-05-07T19:56:35.421Z,99794.70
2018-05-07T19:58:10.548Z,99789.12
2018-05-07T19:59:45.786Z,99792.86
2018-05-07T20:01:21.807Z,99792.67
2018-05-07T20:02:57.119Z,99793.47
2018-05-07T20:04:32.238Z,99799.12
2018-05-07T20:06:08.075Z,99795.28
2018-05-07T20:07:43.206Z,99795.59
2018-05-07T20:09:18.312Z,99797.00
2018-05-07T20:10:54.190Z,99795.56
2018-05-07T20:12:29.502Z,99794.69
2018-05-07T20:14:04.783Z,99791.79
2018-05-07T20:15:40.677Z,99790.19
2018-05-07T20:17:15.772Z,99793.70
2018-05-07T20:18:53.029Z,99793.45
2018-05-07T20:20:28.170Z,99798.53
2018-05-07T20:22:03.292Z,99799.20
2018-05-07T20:23:57.237Z,99797.94
2018-05-07T20:25:32.367Z,99795.95
2018-05-07T20:27:08.319Z,99796.86
2018-05-07T20:28:45.903Z,99792.41
2018-05-07T20:30:21.049Z,99793.58
2018-05-07T20:31:56.170Z,99792.70
2018-05-07T20:33:31.267Z,99790.81
2018-05-07T20:35:06.457Z,99792.47
2018-05-07T20:36:41.523Z,99795.92
2018-05-07T20:38:16.644Z,99790.58
2018-05-07T20:39:51.854Z,99790.52
2018-05-07T20:41:34.004Z,99795.80
2018-05-07T20:43:09.133Z,99793.52